Buoy 44845

sailwx.info

Track history (hours):
 
Tides and Currents Weather Stations Pressure Air Temp Water Temp Dewpoint Dewpoint Depression Visibility Wind Speed Wind Dir Waves Ship Positions

Drifting buoy 44845

Last reported at 2014-Oct-23 07:01 UTC. Time now 2014-Oct-23 08:02 UTC.
Position N 67°53' W 000°40'.

Water temperature 6.7 ° C

Date/timePositionNaut miles runAvg speedWind from/ knotsBaromVisibWave heightAir tempDewpointWater temp
2014-Oct-23 07:01N 67°53' W 000°40'1 1.0 6.7
2014-Oct-23 06:01N 67°52' W 000°41'1 1.1 6.8
2014-Oct-23 05:01N 67°51' W 000°43'1 1.0 6.8
2014-Oct-23 04:01N 67°50' W 000°44'1 0.8 6.9
2014-Oct-23 03:01N 67°49' W 000°45'1 1.0 6.8
2014-Oct-23 02:01N 67°48' W 000°45'1 1.0 6.9
2014-Oct-23 01:01N 67°48' W 000°46'1 1.0 6.8
2014-Oct-23 00:01N 67°47' W 000°46'1 0.9 6.9
2014-Oct-22 23:01N 67°46' W 000°46'1 0.9 6.9
2014-Oct-22 22:01N 67°45' W 000°47'1 0.9 6.9
2014-Oct-22 21:01N 67°44' W 000°48'1 0.8 6.9
2014-Oct-22 20:01N 67°43' W 000°49'1 0.9 6.8
2014-Oct-22 19:01N 67°43' W 000°50'1 0.9 6.9
2014-Oct-22 18:01N 67°42' W 000°52'1 0.9 6.9
2014-Oct-22 17:01N 67°41' W 000°53'1 0.9 6.8
2014-Oct-22 16:01N 67°40' W 000°55'1 0.8 6.9
2014-Oct-22 15:01N 67°40' W 000°56'1 0.7 6.9
2014-Oct-22 14:01N 67°39' W 000°56'1 0.7 6.9
2014-Oct-22 13:01N 67°39' W 000°57'1 0.5 6.7
2014-Oct-22 12:01N 67°38' W 000°58'1 0.7 6.6
2014-Oct-22 11:01N 67°38' W 000°60'1 0.8 6.5
2014-Oct-22 10:01N 67°37' W 001°01'1 0.9 6.6
2014-Oct-22 09:01N 67°37' W 001°04'1 1.1 6.6
2014-Oct-22 08:01N 67°36' W 001°06'1 1.2 6.7
2014-Oct-22 07:01N 67°36' W 001°09'1 1.3 6.6
2014-Oct-22 06:01N 67°35' W 001°11'2 1.5 6.4
2014-Oct-22 05:01N 67°34' W 001°14'1 1.5 6.2
2014-Oct-22 04:01N 67°33' W 001°17'2 1.6 6.0
2014-Oct-22 03:01N 67°32' W 001°20'1 1.5 6.1
2014-Oct-22 02:01N 67°30' W 001°22'1 1.4 6.1
2014-Oct-22 01:01N 67°29' W 001°23'1 1.2 6.1
2014-Oct-22 00:01N 67°28' W 001°24'1 1.1 6.2
2014-Oct-21 23:01N 67°27' W 001°25'1 0.9 6.1
2014-Oct-21 22:01N 67°26' W 001°26'1 0.8 6.0
2014-Oct-21 21:01N 67°25' W 001°27'1 0.8 6.1
2014-Oct-21 20:01N 67°25' W 001°28'1 0.8 6.0
2014-Oct-21 19:01N 67°24' W 001°30'1 0.8 5.7
2014-Oct-21 18:01N 67°24' W 001°32'1 0.8 5.6
2014-Oct-21 17:01N 67°23' W 001°33'1 0.9 5.7
2014-Oct-21 16:01N 67°23' W 001°35'1 0.9 5.7
2014-Oct-21 15:01N 67°22' W 001°36'1 0.9 5.8
2014-Oct-21 14:01N 67°21' W 001°37'1 0.9 5.8
2014-Oct-21 13:01N 67°20' W 001°37'1 0.8 5.8
2014-Oct-21 12:01N 67°19' W 001°37'1 0.7 5.9
2014-Oct-21 11:01N 67°19' W 001°37'1 0.7 5.9
2014-Oct-21 10:01N 67°18' W 001°37'1 0.7 5.9
2014-Oct-21 09:01N 67°17' W 001°38'0 0.5 5.9
2014-Oct-21 08:01N 67°17' W 001°38'0 0.4 5.9
2014-Oct-21 07:01N 67°16' W 001°38'0 0.4 5.8
2014-Oct-21 06:01N 67°16' W 001°38'1 0.5 5.8
2014-Oct-21 05:01N 67°16' W 001°39'1 0.7 5.8
2014-Oct-21 04:01N 67°15' W 001°41'1 1.0 5.8
2014-Oct-21 03:01N 67°15' W 001°42'1 1.0 5.8
2014-Oct-21 02:01N 67°14' W 001°43'1 1.1 6.0
2014-Oct-21 01:01N 67°12' W 001°44'1 1.1 5.9
2014-Oct-21 00:01N 67°11' W 001°44'1 1.3 5.7
2014-Oct-20 23:01N 67°10' W 001°44'1 1.3 5.7
2014-Oct-20 22:01N 67°09' W 001°44'1 1.2 5.7
2014-Oct-20 21:01N 67°08' W 001°44'1 1.0 5.6
2014-Oct-20 20:01N 67°07' W 001°43'1 0.8 5.5
2014-Oct-20 19:01N 67°06' W 001°43'1 0.5 5.6
2014-Oct-20 18:01N 67°05' W 001°44'1 0.6 5.6
2014-Oct-20 17:01N 67°05' W 001°45'1 0.8 5.6
2014-Oct-20 16:01N 67°04' W 001°46'1 0.7 5.6
2014-Oct-20 15:01N 67°04' W 001°48'2 1.9 5.5
2014-Oct-20 14:01N 67°03' W 001°52'0 0.0 5.6
2014-Oct-20 13:01N 67°03' W 001°52'1 1.2 5.6
2014-Oct-20 12:01N 67°02' W 001°54'1 1.3 5.7
2014-Oct-20 11:01N 67°01' W 001°57'1 1.3 5.7
2014-Oct-20 10:01N 67°00' W 001°59'1 1.2 5.6
2014-Oct-20 09:01N 66°59' W 001°60'1 0.9 5.7
2014-Oct-20 08:01N 66°58' W 002°01'1 0.8 5.8
2014-Oct-20 07:01N 66°57' W 002°01'1 0.7 5.8
2014-Oct-20 06:01N 66°57' W 002°01'0 0.4 5.7
2014-Oct-20 05:01N 66°56' W 002°01'1 0.5 5.8
2014-Oct-20 03:01N 66°56' W 002°03'1 0.6 6.1
2014-Oct-20 02:01N 66°55' W 002°04'1 0.7 6.0
2014-Oct-20 01:01N 66°55' W 002°06'1 0.9 6.1
2014-Oct-20 00:01N 66°54' W 002°07'1 1.1 5.9
2014-Oct-19 23:01N 66°53' W 002°09'1 1.4 5.9
2014-Oct-19 22:01N 66°52' W 002°10'4 3.5 6.1
2014-Oct-19 21:01N 66°48' W 002°09'0 0.0 6.2
2014-Oct-19 20:01N 66°48' W 002°09'0 0.0 6.3
2014-Oct-19 19:01N 66°48' W 002°09'1 0.7 6.4
2014-Oct-19 18:01N 66°48' W 002°08'1 0.6 6.3
2014-Oct-19 17:01N 66°47' W 002°08'0 0.3 6.3
2014-Oct-19 16:01N 66°47' W 002°07'0 0.2 6.3
2014-Oct-19 15:01N 66°47' W 002°08'0 0.4 6.3
2014-Oct-19 14:01N 66°47' W 002°08'1 0.6 6.4
2014-Oct-19 13:01N 66°46' W 002°09'1 0.8 6.4
2014-Oct-19 12:01N 66°46' W 002°11'1 1.0 6.5
2014-Oct-19 11:01N 66°45' W 002°12'1 1.2 6.5
2014-Oct-19 10:01N 66°44' W 002°13'1 1.3 6.5
2014-Oct-19 09:01N 66°42' W 002°14'1 1.2 6.4
2014-Oct-19 08:01N 66°41' W 002°14'1 1.0 6.5
2014-Oct-19 07:01N 66°40' W 002°12'2 2.0 6.5
2014-Oct-19 06:01N 66°39' W 002°08'0 0.0 6.6
2014-Oct-19 05:01N 66°39' W 002°08'1 0.9 6.6
2014-Oct-19 04:01N 66°39' W 002°05'1 0.9 6.6
2014-Oct-19 03:01N 66°39' W 002°03'1 0.8 6.7
2014-Oct-19 02:01N 66°39' W 002°01'1 0.7 6.8
2014-Oct-19 01:01N 66°39' W 001°60'1 0.6 6.8
2014-Oct-19 00:01N 66°40' W 001°58'0 0.5 6.9
2014-Oct-18 23:01N 66°39' W 001°57'0 0.5 6.9
2014-Oct-18 22:01N 66°39' W 001°56'1 0.5 7.1
2014-Oct-18 21:01N 66°39' W 001°54'1 0.6 7.1
2014-Oct-18 20:01N 66°39' W 001°53'1 0.8 7.1
2014-Oct-18 19:01N 66°39' W 001°51'1 1.0 7.0
2014-Oct-18 18:01N 66°38' W 001°49'1 0.9 7.0
2014-Oct-18 17:01N 66°38' W 001°47'1 1.0 7.1
2014-Oct-18 16:01N 66°38' W 001°44'1 0.9 7.2
2014-Oct-18 15:01N 66°39' W 001°42'1 0.7 7.1
2014-Oct-18 14:01N 66°39' W 001°40'1 0.7 7.2
2014-Oct-18 13:01N 66°39' W 001°39'1 0.5 7.2
2014-Oct-18 12:01N 66°39' W 001°38'0 0.4 7.2
2014-Oct-18 11:01N 66°40' W 001°37'0 0.3 7.2
2014-Oct-18 10:01N 66°40' W 001°36'0 0.3 7.2
2014-Oct-18 09:01N 66°40' W 001°36'0 0.4 7.2
2014-Oct-18 08:01N 66°39' W 001°35'1 0.5 7.2
2014-Oct-18 07:01N 66°39' W 001°33'1 0.6 7.2
2014-Oct-18 06:01N 66°39' W 001°32'1 0.6 7.2
2014-Oct-18 05:01N 66°39' W 001°30'3 0.5 7.2
2014-Oct-17 23:01N 66°40' W 001°22'0 0.3 7.1
2014-Oct-17 22:01N 66°40' W 001°22'0 0.4 7.1
2014-Oct-17 21:01N 66°40' W 001°21'0 0.4 7.1
2014-Oct-17 20:01N 66°40' W 001°20'1 0.6 7.0
2014-Oct-17 19:01N 66°40' W 001°18'1 0.7 7.1
2014-Oct-17 18:01N 66°40' W 001°17'1 0.8 7.1
2014-Oct-17 17:01N 66°39' W 001°15'1 0.9 7.1
2014-Oct-17 16:01N 66°39' W 001°13'1 0.8 7.1
2014-Oct-17 15:01N 66°39' W 001°11'1 0.7 7.1
2014-Oct-17 14:01N 66°39' W 001°09'1 0.8 7.1
2014-Oct-17 13:01N 66°39' W 001°07'1 0.7 7.1
2014-Oct-17 12:01N 66°38' W 001°06'1 0.6 7.1
2014-Oct-17 11:01N 66°38' W 001°05'1 0.6 7.1
2014-Oct-17 10:01N 66°38' W 001°04'1 1.2 7.1
2014-Oct-17 09:01N 66°37' W 001°02'0 0.0 7.1
2014-Oct-17 08:01N 66°37' W 001°02'1 0.9 7.1
2014-Oct-17 07:01N 66°36' W 001°00'1 0.8 7.0
2014-Oct-17 06:01N 66°35' W 000°59'1 0.9 7.0
2014-Oct-17 05:01N 66°35' W 000°57'1 0.8 7.0
2014-Oct-17 04:01N 66°34' W 000°56'1 0.6 7.1
2014-Oct-17 03:01N 66°34' W 000°54'1 0.6 7.0
2014-Oct-17 02:01N 66°34' W 000°53'0 0.4 7.0
2014-Oct-17 01:01N 66°33' W 000°52'0 0.4 7.1
2014-Oct-17 00:01N 66°33' W 000°51'1 0.7 7.0
2014-Oct-16 23:01N 66°33' W 000°50'1 0.7 7.1
2014-Oct-16 22:01N 66°32' W 000°49'1 0.5 7.1
2014-Oct-16 21:01N 66°32' W 000°48'1 0.5 7.1
2014-Oct-16 20:01N 66°32' W 000°47'1 0.5 7.0
2014-Oct-16 19:01N 66°31' W 000°46'5 0.8 7.2
2014-Oct-16 13:01N 66°29' W 000°36'1 0.5 7.0
2014-Oct-16 12:01N 66°28' W 000°35'2 0.4 6.9
2014-Oct-16 08:01N 66°27' W 000°32'1 0.3 6.9
2014-Oct-16 05:01N 66°26' W 000°30'1 0.5 7.0
2014-Oct-16 04:01N 66°26' W 000°29'1 0.6 6.9
2014-Oct-16 02:01N 66°26' W 000°26'2 0.6 6.9
2014-Oct-15 23:01N 66°26' W 000°21'2 0.8 7.0
2014-Oct-15 21:01N 66°25' W 000°18'1 0.8 7.1
2014-Oct-15 20:01N 66°24' W 000°17'1 0.9 7.2
2014-Oct-15 19:01N 66°24' W 000°15'1 0.8 7.1
2014-Oct-15 18:01N 66°23' W 000°14'1 0.8 7.1
2014-Oct-15 17:01N 66°22' W 000°13'2 0.8 7.1
2014-Oct-15 15:01N 66°21' W 000°11'1 0.7 7.2
2014-Oct-15 14:01N 66°20' W 000°11'1 0.8 7.3
2014-Oct-15 13:01N 66°19' W 000°11'1 0.9 7.3
2014-Oct-15 12:01N 66°18' W 000°11'4 1.2 7.4
2014-Oct-15 09:01N 66°15' W 000°12'1 0.4 7.4
2014-Oct-15 07:01N 66°14' W 000°12'1 0.6 7.4
2014-Oct-15 06:01N 66°14' W 000°12'1 0.5 7.3
2014-Oct-15 05:01N 66°13' W 000°12'0 0.4 7.3
2014-Oct-15 04:01N 66°13' W 000°12'1 0.5 7.4
2014-Oct-15 03:01N 66°12' W 000°13'1 0.5 7.3
2014-Oct-15 02:01N 66°12' W 000°14'1 0.7 7.4
2014-Oct-15 01:01N 66°11' W 000°15'1 0.8 7.5
2014-Oct-15 00:01N 66°11' W 000°16'1 0.7 7.5
2014-Oct-14 23:01N 66°10' W 000°17'1 0.8 7.5
2014-Oct-14 22:01N 66°09' W 000°18'1 0.6 7.5
2014-Oct-14 21:01N 66°09' W 000°19'1 0.5 7.5
2014-Oct-14 20:01N 66°08' W 000°19'1 0.5 7.5
2014-Oct-14 19:01N 66°08' W 000°20'0 0.4 7.5
2014-Oct-14 18:01N 66°08' W 000°20'0 0.4 7.5
2014-Oct-14 17:01N 66°07' W 000°20'0 0.3 7.4
2014-Oct-14 16:01N 66°07' W 000°21'0 0.3 7.5
2014-Oct-14 15:01N 66°07' W 000°21'0 0.2 7.5
2014-Oct-14 14:01N 66°06' W 000°21'0 0.3 7.5
2014-Oct-14 13:01N 66°06' W 000°22'0 0.4 7.5
2014-Oct-14 12:01N 66°06' W 000°22'0 0.4 7.4
2014-Oct-14 11:01N 66°06' W 000°23'0 0.4 7.4
2014-Oct-14 10:01N 66°05' W 000°24'0 0.4 7.4
2014-Oct-14 09:01N 66°05' W 000°24'0 0.4 7.4
2014-Oct-14 08:01N 66°05' W 000°25'0 0.3 7.4
2014-Oct-14 07:01N 66°04' W 000°25'0 0.3 7.5
2014-Oct-14 06:01N 66°04' W 000°24'0 0.3 7.5
2014-Oct-14 05:01N 66°04' W 000°24'0 0.1 7.7
2014-Oct-14 04:01N 66°04' W 000°24'0 0.2 7.7
2014-Oct-14 03:01N 66°04' W 000°24'0 0.3 7.6
2014-Oct-14 02:01N 66°03' W 000°24'0 0.2 7.6
2014-Oct-14 01:01N 66°03' W 000°23'0 0.3 7.6
2014-Oct-14 00:01N 66°03' W 000°23'0 0.2 7.6
2014-Oct-13 23:01N 66°03' W 000°23'0 0.1 7.6
2014-Oct-13 21:01N 66°03' W 000°23'0 0.1 7.5
2014-Oct-13 20:01N 66°02' W 000°23'0 0.3 7.5
2014-Oct-13 19:01N 66°02' W 000°22'0 0.5 7.5
2014-Oct-13 18:01N 66°02' W 000°21'1 0.6 7.5
2014-Oct-13 17:01N 66°02' W 000°20'1 0.7 7.4
2014-Oct-13 16:01N 66°02' W 000°18'1 0.7 7.5
2014-Oct-13 15:01N 66°01' W 000°17'1 0.7 7.5
2014-Oct-13 14:01N 66°01' W 000°15'1 0.6 7.4
2014-Oct-13 13:01N 66°01' W 000°14'1 0.6 7.5
2014-Oct-13 12:01N 66°01' W 000°12'1 0.5 7.6
2014-Oct-13 11:01N 66°01' W 000°11'1 0.5 7.6
2014-Oct-13 09:01N 66°01' W 000°09'0 0.4 7.5
2014-Oct-13 08:01N 66°01' W 000°08'0 0.4 7.5
2014-Oct-13 07:01N 66°01' W 000°07'   7.5
Track history (hours):
 
Tides and Currents Weather Stations Pressure Air Temp Water Temp Dewpoint Dewpoint Depression Visibility Wind Speed Wind Dir Waves Ship Positions

Drifting buoy 44845

Last reported at 2014-Oct-23 07:01 UTC. Time now 2014-Oct-23 08:02 UTC.
Position N 67°53' W 000°40'.

Water temperature 6.7 ° C

Date/timePositionNaut miles runAvg speedWind from/ knotsBaromVisibWave heightAir tempDewpointWater temp
2014-Oct-23 07:01N 67°53' W 000°40'1 1.0 6.7
2014-Oct-23 06:01N 67°52' W 000°41'1 1.1 6.8
2014-Oct-23 05:01N 67°51' W 000°43'1 1.0 6.8
2014-Oct-23 04:01N 67°50' W 000°44'1 0.8 6.9
2014-Oct-23 03:01N 67°49' W 000°45'1 1.0 6.8
2014-Oct-23 02:01N 67°48' W 000°45'1 1.0 6.9
2014-Oct-23 01:01N 67°48' W 000°46'1 1.0 6.8
2014-Oct-23 00:01N 67°47' W 000°46'1 0.9 6.9
2014-Oct-22 23:01N 67°46' W 000°46'1 0.9 6.9
2014-Oct-22 22:01N 67°45' W 000°47'1 0.9 6.9
2014-Oct-22 21:01N 67°44' W 000°48'1 0.8 6.9
2014-Oct-22 20:01N 67°43' W 000°49'1 0.9 6.8
2014-Oct-22 19:01N 67°43' W 000°50'1 0.9 6.9
2014-Oct-22 18:01N 67°42' W 000°52'1 0.9 6.9
2014-Oct-22 17:01N 67°41' W 000°53'1 0.9 6.8
2014-Oct-22 16:01N 67°40' W 000°55'1 0.8 6.9
2014-Oct-22 15:01N 67°40' W 000°56'1 0.7 6.9
2014-Oct-22 14:01N 67°39' W 000°56'1 0.7 6.9
2014-Oct-22 13:01N 67°39' W 000°57'1 0.5 6.7
2014-Oct-22 12:01N 67°38' W 000°58'1 0.7 6.6
2014-Oct-22 11:01N 67°38' W 000°60'1 0.8 6.5
2014-Oct-22 10:01N 67°37' W 001°01'1 0.9 6.6
2014-Oct-22 09:01N 67°37' W 001°04'1 1.1 6.6
2014-Oct-22 08:01N 67°36' W 001°06'1 1.2 6.7
2014-Oct-22 07:01N 67°36' W 001°09'1 1.3 6.6
2014-Oct-22 06:01N 67°35' W 001°11'2 1.5 6.4
2014-Oct-22 05:01N 67°34' W 001°14'1 1.5 6.2
2014-Oct-22 04:01N 67°33' W 001°17'2 1.6 6.0
2014-Oct-22 03:01N 67°32' W 001°20'1 1.5 6.1
2014-Oct-22 02:01N 67°30' W 001°22'1 1.4 6.1
2014-Oct-22 01:01N 67°29' W 001°23'1 1.2 6.1
2014-Oct-22 00:01N 67°28' W 001°24'1 1.1 6.2
2014-Oct-21 23:01N 67°27' W 001°25'1 0.9 6.1
2014-Oct-21 22:01N 67°26' W 001°26'1 0.8 6.0
2014-Oct-21 21:01N 67°25' W 001°27'1 0.8 6.1
2014-Oct-21 20:01N 67°25' W 001°28'1 0.8 6.0
2014-Oct-21 19:01N 67°24' W 001°30'1 0.8 5.7
2014-Oct-21 18:01N 67°24' W 001°32'1 0.8 5.6
2014-Oct-21 17:01N 67°23' W 001°33'1 0.9 5.7
2014-Oct-21 16:01N 67°23' W 001°35'1 0.9 5.7
2014-Oct-21 15:01N 67°22' W 001°36'1 0.9 5.8
2014-Oct-21 14:01N 67°21' W 001°37'1 0.9 5.8
2014-Oct-21 13:01N 67°20' W 001°37'1 0.8 5.8
2014-Oct-21 12:01N 67°19' W 001°37'1 0.7 5.9
2014-Oct-21 11:01N 67°19' W 001°37'1 0.7 5.9
2014-Oct-21 10:01N 67°18' W 001°37'1 0.7 5.9
2014-Oct-21 09:01N 67°17' W 001°38'0 0.5 5.9
2014-Oct-21 08:01N 67°17' W 001°38'0 0.4 5.9
2014-Oct-21 07:01N 67°16' W 001°38'0 0.4 5.8
2014-Oct-21 06:01N 67°16' W 001°38'1 0.5 5.8
2014-Oct-21 05:01N 67°16' W 001°39'1 0.7 5.8
2014-Oct-21 04:01N 67°15' W 001°41'1 1.0 5.8
2014-Oct-21 03:01N 67°15' W 001°42'1 1.0 5.8
2014-Oct-21 02:01N 67°14' W 001°43'1 1.1 6.0
2014-Oct-21 01:01N 67°12' W 001°44'1 1.1 5.9
2014-Oct-21 00:01N 67°11' W 001°44'1 1.3 5.7
2014-Oct-20 23:01N 67°10' W 001°44'1 1.3 5.7
2014-Oct-20 22:01N 67°09' W 001°44'1 1.2 5.7
2014-Oct-20 21:01N 67°08' W 001°44'1 1.0 5.6
2014-Oct-20 20:01N 67°07' W 001°43'1 0.8 5.5
2014-Oct-20 19:01N 67°06' W 001°43'1 0.5 5.6
2014-Oct-20 18:01N 67°05' W 001°44'1 0.6 5.6
2014-Oct-20 17:01N 67°05' W 001°45'1 0.8 5.6
2014-Oct-20 16:01N 67°04' W 001°46'1 0.7 5.6
2014-Oct-20 15:01N 67°04' W 001°48'2 1.9 5.5
2014-Oct-20 14:01N 67°03' W 001°52'0 0.0 5.6
2014-Oct-20 13:01N 67°03' W 001°52'1 1.2 5.6
2014-Oct-20 12:01N 67°02' W 001°54'1 1.3 5.7
2014-Oct-20 11:01N 67°01' W 001°57'1 1.3 5.7
2014-Oct-20 10:01N 67°00' W 001°59'1 1.2 5.6
2014-Oct-20 09:01N 66°59' W 001°60'1 0.9 5.7
2014-Oct-20 08:01N 66°58' W 002°01'1 0.8 5.8
2014-Oct-20 07:01N 66°57' W 002°01'1 0.7 5.8
2014-Oct-20 06:01N 66°57' W 002°01'0 0.4 5.7
2014-Oct-20 05:01N 66°56' W 002°01'1 0.5 5.8
2014-Oct-20 03:01N 66°56' W 002°03'1 0.6 6.1
2014-Oct-20 02:01N 66°55' W 002°04'1 0.7 6.0
2014-Oct-20 01:01N 66°55' W 002°06'1 0.9 6.1
2014-Oct-20 00:01N 66°54' W 002°07'1 1.1 5.9
2014-Oct-19 23:01N 66°53' W 002°09'1 1.4 5.9
2014-Oct-19 22:01N 66°52' W 002°10'4 3.5 6.1
2014-Oct-19 21:01N 66°48' W 002°09'0 0.0 6.2
2014-Oct-19 20:01N 66°48' W 002°09'0 0.0 6.3
2014-Oct-19 19:01N 66°48' W 002°09'1 0.7 6.4
2014-Oct-19 18:01N 66°48' W 002°08'1 0.6 6.3
2014-Oct-19 17:01N 66°47' W 002°08'0 0.3 6.3
2014-Oct-19 16:01N 66°47' W 002°07'0 0.2 6.3
2014-Oct-19 15:01N 66°47' W 002°08'0 0.4 6.3
2014-Oct-19 14:01N 66°47' W 002°08'1 0.6 6.4
2014-Oct-19 13:01N 66°46' W 002°09'1 0.8 6.4
2014-Oct-19 12:01N 66°46' W 002°11'1 1.0 6.5
2014-Oct-19 11:01N 66°45' W 002°12'1 1.2 6.5
2014-Oct-19 10:01N 66°44' W 002°13'1 1.3 6.5
2014-Oct-19 09:01N 66°42' W 002°14'1 1.2 6.4
2014-Oct-19 08:01N 66°41' W 002°14'1 1.0 6.5
2014-Oct-19 07:01N 66°40' W 002°12'2 2.0 6.5
2014-Oct-19 06:01N 66°39' W 002°08'0 0.0 6.6
2014-Oct-19 05:01N 66°39' W 002°08'1 0.9 6.6
2014-Oct-19 04:01N 66°39' W 002°05'1 0.9 6.6
2014-Oct-19 03:01N 66°39' W 002°03'1 0.8 6.7
2014-Oct-19 02:01N 66°39' W 002°01'1 0.7 6.8
2014-Oct-19 01:01N 66°39' W 001°60'1 0.6 6.8
2014-Oct-19 00:01N 66°40' W 001°58'0 0.5 6.9
2014-Oct-18 23:01N 66°39' W 001°57'0 0.5 6.9
2014-Oct-18 22:01N 66°39' W 001°56'1 0.5 7.1
2014-Oct-18 21:01N 66°39' W 001°54'1 0.6 7.1
2014-Oct-18 20:01N 66°39' W 001°53'1 0.8 7.1
2014-Oct-18 19:01N 66°39' W 001°51'1 1.0 7.0
2014-Oct-18 18:01N 66°38' W 001°49'1 0.9 7.0
2014-Oct-18 17:01N 66°38' W 001°47'1 1.0 7.1
2014-Oct-18 16:01N 66°38' W 001°44'1 0.9 7.2
2014-Oct-18 15:01N 66°39' W 001°42'1 0.7 7.1
2014-Oct-18 14:01N 66°39' W 001°40'1 0.7 7.2
2014-Oct-18 13:01N 66°39' W 001°39'1 0.5 7.2
2014-Oct-18 12:01N 66°39' W 001°38'0 0.4 7.2
2014-Oct-18 11:01N 66°40' W 001°37'0 0.3 7.2
2014-Oct-18 10:01N 66°40' W 001°36'0 0.3 7.2
2014-Oct-18 09:01N 66°40' W 001°36'0 0.4 7.2
2014-Oct-18 08:01N 66°39' W 001°35'1 0.5 7.2
2014-Oct-18 07:01N 66°39' W 001°33'1 0.6 7.2
2014-Oct-18 06:01N 66°39' W 001°32'1 0.6 7.2
2014-Oct-18 05:01N 66°39' W 001°30'3 0.5 7.2
2014-Oct-17 23:01N 66°40' W 001°22'0 0.3 7.1
2014-Oct-17 22:01N 66°40' W 001°22'0 0.4 7.1
2014-Oct-17 21:01N 66°40' W 001°21'0 0.4 7.1
2014-Oct-17 20:01N 66°40' W 001°20'1 0.6 7.0
2014-Oct-17 19:01N 66°40' W 001°18'1 0.7 7.1
2014-Oct-17 18:01N 66°40' W 001°17'1 0.8 7.1
2014-Oct-17 17:01N 66°39' W 001°15'1 0.9 7.1
2014-Oct-17 16:01N 66°39' W 001°13'1 0.8 7.1
2014-Oct-17 15:01N 66°39' W 001°11'1 0.7 7.1
2014-Oct-17 14:01N 66°39' W 001°09'1 0.8 7.1
2014-Oct-17 13:01N 66°39' W 001°07'1 0.7 7.1
2014-Oct-17 12:01N 66°38' W 001°06'1 0.6 7.1
2014-Oct-17 11:01N 66°38' W 001°05'1 0.6 7.1
2014-Oct-17 10:01N 66°38' W 001°04'1 1.2 7.1
2014-Oct-17 09:01N 66°37' W 001°02'0 0.0 7.1
2014-Oct-17 08:01N 66°37' W 001°02'1 0.9 7.1
2014-Oct-17 07:01N 66°36' W 001°00'1 0.8 7.0
2014-Oct-17 06:01N 66°35' W 000°59'1 0.9 7.0
2014-Oct-17 05:01N 66°35' W 000°57'1 0.8 7.0
2014-Oct-17 04:01N 66°34' W 000°56'1 0.6 7.1
2014-Oct-17 03:01N 66°34' W 000°54'1 0.6 7.0
2014-Oct-17 02:01N 66°34' W 000°53'0 0.4 7.0
2014-Oct-17 01:01N 66°33' W 000°52'0 0.4 7.1
2014-Oct-17 00:01N 66°33' W 000°51'1 0.7 7.0
2014-Oct-16 23:01N 66°33' W 000°50'1 0.7 7.1
2014-Oct-16 22:01N 66°32' W 000°49'1 0.5 7.1
2014-Oct-16 21:01N 66°32' W 000°48'1 0.5 7.1
2014-Oct-16 20:01N 66°32' W 000°47'1 0.5 7.0
2014-Oct-16 19:01N 66°31' W 000°46'5 0.8 7.2
2014-Oct-16 13:01N 66°29' W 000°36'1 0.5 7.0
2014-Oct-16 12:01N 66°28' W 000°35'2 0.4 6.9
2014-Oct-16 08:01N 66°27' W 000°32'1 0.3 6.9
2014-Oct-16 05:01N 66°26' W 000°30'1 0.5 7.0
2014-Oct-16 04:01N 66°26' W 000°29'1 0.6 6.9
2014-Oct-16 02:01N 66°26' W 000°26'2 0.6 6.9
2014-Oct-15 23:01N 66°26' W 000°21'2 0.8 7.0
2014-Oct-15 21:01N 66°25' W 000°18'1 0.8 7.1
2014-Oct-15 20:01N 66°24' W 000°17'1 0.9 7.2
2014-Oct-15 19:01N 66°24' W 000°15'1 0.8 7.1
2014-Oct-15 18:01N 66°23' W 000°14'1 0.8 7.1
2014-Oct-15 17:01N 66°22' W 000°13'2 0.8 7.1
2014-Oct-15 15:01N 66°21' W 000°11'1 0.7 7.2
2014-Oct-15 14:01N 66°20' W 000°11'1 0.8 7.3
2014-Oct-15 13:01N 66°19' W 000°11'1 0.9 7.3
2014-Oct-15 12:01N 66°18' W 000°11'4 1.2 7.4
2014-Oct-15 09:01N 66°15' W 000°12'1 0.4 7.4
2014-Oct-15 07:01N 66°14' W 000°12'1 0.6 7.4
2014-Oct-15 06:01N 66°14' W 000°12'1 0.5 7.3
2014-Oct-15 05:01N 66°13' W 000°12'0 0.4 7.3
2014-Oct-15 04:01N 66°13' W 000°12'1 0.5 7.4
2014-Oct-15 03:01N 66°12' W 000°13'1 0.5 7.3
2014-Oct-15 02:01N 66°12' W 000°14'1 0.7 7.4
2014-Oct-15 01:01N 66°11' W 000°15'1 0.8 7.5
2014-Oct-15 00:01N 66°11' W 000°16'1 0.7 7.5
2014-Oct-14 23:01N 66°10' W 000°17'1 0.8 7.5
2014-Oct-14 22:01N 66°09' W 000°18'1 0.6 7.5
2014-Oct-14 21:01N 66°09' W 000°19'1 0.5 7.5
2014-Oct-14 20:01N 66°08' W 000°19'1 0.5 7.5
2014-Oct-14 19:01N 66°08' W 000°20'0 0.4 7.5
2014-Oct-14 18:01N 66°08' W 000°20'0 0.4 7.5
2014-Oct-14 17:01N 66°07' W 000°20'0 0.3 7.4
2014-Oct-14 16:01N 66°07' W 000°21'0 0.3 7.5
2014-Oct-14 15:01N 66°07' W 000°21'0 0.2 7.5
2014-Oct-14 14:01N 66°06' W 000°21'0 0.3 7.5
2014-Oct-14 13:01N 66°06' W 000°22'0 0.4 7.5
2014-Oct-14 12:01N 66°06' W 000°22'0 0.4 7.4
2014-Oct-14 11:01N 66°06' W 000°23'0 0.4 7.4
2014-Oct-14 10:01N 66°05' W 000°24'0 0.4 7.4
2014-Oct-14 09:01N 66°05' W 000°24'0 0.4 7.4
2014-Oct-14 08:01N 66°05' W 000°25'0 0.3 7.4
2014-Oct-14 07:01N 66°04' W 000°25'0 0.3 7.5
2014-Oct-14 06:01N 66°04' W 000°24'0 0.3 7.5
2014-Oct-14 05:01N 66°04' W 000°24'0 0.1 7.7
2014-Oct-14 04:01N 66°04' W 000°24'0 0.2 7.7
2014-Oct-14 03:01N 66°04' W 000°24'0 0.3 7.6
2014-Oct-14 02:01N 66°03' W 000°24'0 0.2 7.6
2014-Oct-14 01:01N 66°03' W 000°23'0 0.3 7.6
2014-Oct-14 00:01N 66°03' W 000°23'0 0.2 7.6
2014-Oct-13 23:01N 66°03' W 000°23'0 0.1 7.6
2014-Oct-13 21:01N 66°03' W 000°23'0 0.1 7.5
2014-Oct-13 20:01N 66°02' W 000°23'0 0.3 7.5
2014-Oct-13 19:01N 66°02' W 000°22'0 0.5 7.5
2014-Oct-13 18:01N 66°02' W 000°21'1 0.6 7.5
2014-Oct-13 17:01N 66°02' W 000°20'1 0.7 7.4
2014-Oct-13 16:01N 66°02' W 000°18'1 0.7 7.5
2014-Oct-13 15:01N 66°01' W 000°17'1 0.7 7.5
2014-Oct-13 14:01N 66°01' W 000°15'1 0.6 7.4
2014-Oct-13 13:01N 66°01' W 000°14'1 0.6 7.5
2014-Oct-13 12:01N 66°01' W 000°12'1 0.5 7.6
2014-Oct-13 11:01N 66°01' W 000°11'1 0.5 7.6
2014-Oct-13 09:01N 66°01' W 000°09'0 0.4 7.5
2014-Oct-13 08:01N 66°01' W 000°08'0 0.4 7.5
2014-Oct-13 07:01N 66°01' W 000°07'   7.5

Dump ship's entire track history